sensor_id;sensor_type;location;lat;lon;timestamp;pressure;altitude;pressure_sealevel;temperature;humidity
60087;BME280;45960;53.630;55.972;2023-03-16T00:00:47;101669.94;;;-2.72;56.00
60087;BME280;45960;53.630;55.972;2023-03-16T00:01:48;101664.72;;;-2.71;56.04
60087;BME280;45960;53.630;55.972;2023-03-16T00:02:49;101655.97;;;-2.74;55.90
60087;BME280;45960;53.630;55.972;2023-03-16T00:03:50;101657.78;;;-2.67;56.08
60087;BME280;45960;53.630;55.972;2023-03-16T00:04:51;101663.00;;;-2.67;55.82
60087;BME280;45960;53.630;55.972;2023-03-16T00:05:53;101662.22;;;-2.63;55.76
60087;BME280;45960;53.630;55.972;2023-03-16T00:06:54;101659.59;;;-2.63;55.88
60087;BME280;45960;53.630;55.972;2023-03-16T00:07:55;101659.63;;;-2.60;55.90
60087;BME280;45960;53.630;55.972;2023-03-16T00:08:56;101657.88;;;-2.58;55.93
60087;BME280;45960;53.630;55.972;2023-03-16T00:09:58;101661.41;;;-2.57;55.73
60087;BME280;45960;53.630;55.972;2023-03-16T00:11:00;101654.41;;;-2.57;55.78
60087;BME280;45960;53.630;55.972;2023-03-16T00:12:02;101650.06;;;-2.56;55.76
60087;BME280;45960;53.630;55.972;2023-03-16T00:13:03;101654.44;;;-2.54;55.82
60087;BME280;45960;53.630;55.972;2023-03-16T00:14:04;101650.97;;;-2.53;55.73
60087;BME280;45960;53.630;55.972;2023-03-16T00:15:06;101654.47;;;-2.51;55.51
60087;BME280;45960;53.630;55.972;2023-03-16T00:16:07;101649.25;;;-2.51;55.76
60087;BME280;45960;53.630;55.972;2023-03-16T00:17:13;101645.78;;;-2.48;55.46
60087;BME280;45960;53.630;55.972;2023-03-16T00:18:18;101651.00;;;-2.48;55.50
60087;BME280;45960;53.630;55.972;2023-03-16T00:19:20;101658.88;;;-2.47;55.49
60087;BME280;45960;53.630;55.972;2023-03-16T00:20:24;101651.00;;;-2.47;55.49
60087;BME280;45960;53.630;55.972;2023-03-16T00:21:25;101652.78;;;-2.45;55.43
60087;BME280;45960;53.630;55.972;2023-03-16T00:22:28;101651.00;;;-2.47;55.48
60087;BME280;45960;53.630;55.972;2023-03-16T00:23:31;101652.78;;;-2.45;55.42
60087;BME280;45960;53.630;55.972;2023-03-16T00:24:35;101653.66;;;-2.45;55.51
60087;BME280;45960;53.630;55.972;2023-03-16T00:25:36;101657.16;;;-2.46;55.39
60087;BME280;45960;53.630;55.972;2023-03-16T00:26:37;101656.25;;;-2.47;55.47
60087;BME280;45960;53.630;55.972;2023-03-16T00:27:38;101661.50;;;-2.45;55.37
60087;BME280;45960;53.630;55.972;2023-03-16T00:28:40;101663.25;;;-2.45;55.47
60087;BME280;45960;53.630;55.972;2023-03-16T00:29:44;101664.13;;;-2.45;55.52
60087;BME280;45960;53.630;55.972;2023-03-16T00:30:48;101660.63;;;-2.45;55.41
60087;BME280;45960;53.630;55.972;2023-03-16T00:31:49;101663.25;;;-2.45;55.49
60087;BME280;45960;53.630;55.972;2023-03-16T00:32:51;101668.50;;;-2.45;55.43
60087;BME280;45960;53.630;55.972;2023-03-16T00:33:53;101662.38;;;-2.46;55.42
60087;BME280;45960;53.630;55.972;2023-03-16T00:34:55;101666.78;;;-2.43;55.38
60087;BME280;45960;53.630;55.972;2023-03-16T00:35:56;101663.22;;;-2.49;55.24
60087;BME280;45960;53.630;55.972;2023-03-16T00:37:03;101655.34;;;-2.52;55.35
60087;BME280;45960;53.630;55.972;2023-03-16T00:38:04;101660.63;;;-2.45;55.34
60087;BME280;45960;53.630;55.972;2023-03-16T00:39:05;101665.00;;;-2.44;55.34
60087;BME280;45960;53.630;55.972;2023-03-16T00:40:08;101656.19;;;-2.53;55.33
60087;BME280;45960;53.630;55.972;2023-03-16T00:41:10;101664.97;;;-2.48;55.42
60087;BME280;45960;53.630;55.972;2023-03-16T00:42:17;101664.09;;;-2.48;55.35
60087;BME280;45960;53.630;55.972;2023-03-16T00:43:19;101663.22;;;-2.49;55.12
60087;BME280;45960;53.630;55.972;2023-03-16T00:44:24;101658.00;;;-2.49;55.25
60087;BME280;45960;53.630;55.972;2023-03-16T00:45:27;101663.22;;;-2.49;55.22
60087;BME280;45960;53.630;55.972;2023-03-16T00:46:31;101662.34;;;-2.49;55.18
60087;BME280;45960;53.630;55.972;2023-03-16T00:47:35;101670.19;;;-2.51;55.01
60087;BME280;45960;53.630;55.972;2023-03-16T00:48:40;101659.69;;;-2.54;55.17
60087;BME280;45960;53.630;55.972;2023-03-16T00:49:45;101664.84;;;-2.60;54.91
60087;BME280;45960;53.630;55.972;2023-03-16T00:50:56;101662.19;;;-2.64;55.23
60087;BME280;45960;53.630;55.972;2023-03-16T00:52:01;101656.94;;;-2.64;55.27
60087;BME280;45960;53.630;55.972;2023-03-16T00:53:07;101663.03;;;-2.64;55.27
60087;BME280;45960;53.630;55.972;2023-03-16T00:54:09;101653.44;;;-2.66;55.31
60087;BME280;45960;53.630;55.972;2023-03-16T00:55:11;101659.50;;;-2.69;55.30
60087;BME280;45960;53.630;55.972;2023-03-16T00:56:12;101653.34;;;-2.73;55.32
60087;BME280;45960;53.630;55.972;2023-03-16T00:57:16;101650.75;;;-2.74;55.61
60087;BME280;45960;53.630;55.972;2023-03-16T00:58:18;101652.47;;;-2.76;55.60
60087;BME280;45960;53.630;55.972;2023-03-16T00:59:19;101654.13;;;-2.81;55.69
60087;BME280;45960;53.630;55.972;2023-03-16T01:00:21;101657.63;;;-2.82;55.71
60087;BME280;45960;53.630;55.972;2023-03-16T01:01:26;101669.78;;;-2.84;55.79
60087;BME280;45960;53.630;55.972;2023-03-16T01:02:28;101663.66;;;-2.88;55.79
60087;BME280;45960;53.630;55.972;2023-03-16T01:03:29;101668.03;;;-2.88;55.68
60087;BME280;45960;53.630;55.972;2023-03-16T01:04:30;101662.78;;;-2.88;55.98
60087;BME280;45960;53.630;55.972;2023-03-16T01:05:38;101666.28;;;-2.86;55.99
60087;BME280;45960;53.630;55.972;2023-03-16T01:06:40;101668.06;;;-2.85;55.87
60087;BME280;45960;53.630;55.972;2023-03-16T01:07:41;101671.50;;;-2.86;55.96
60087;BME280;45960;53.630;55.972;2023-03-16T01:08:43;101668.91;;;-2.88;55.97
60087;BME280;45960;53.630;55.972;2023-03-16T01:09:44;101673.19;;;-2.92;55.98
60087;BME280;45960;53.630;55.972;2023-03-16T01:10:45;101674.94;;;-2.94;55.89
60087;BME280;45960;53.630;55.972;2023-03-16T01:11:46;101671.38;;;-2.99;56.15
60087;BME280;45960;53.630;55.972;2023-03-16T01:12:51;101673.97;;;-2.99;56.40
60087;BME280;45960;53.630;55.972;2023-03-16T01:13:55;101666.94;;;-3.04;56.28
60087;BME280;45960;53.630;55.972;2023-03-16T01:14:57;101669.56;;;-3.03;56.43
60087;BME280;45960;53.630;55.972;2023-03-16T01:16:00;101661.69;;;-3.07;56.44
60087;BME280;45960;53.630;55.972;2023-03-16T01:17:03;101670.47;;;-3.02;56.48
60087;BME280;45960;53.630;55.972;2023-03-16T01:18:04;101671.31;;;-3.05;56.44
60087;BME280;45960;53.630;55.972;2023-03-16T01:19:06;101654.75;;;-3.04;56.48
60087;BME280;45960;53.630;55.972;2023-03-16T01:20:09;101662.63;;;-3.01;56.42
60087;BME280;45960;53.630;55.972;2023-03-16T01:21:15;101660.94;;;-2.96;56.25
60087;BME280;45960;53.630;55.972;2023-03-16T01:22:17;101662.75;;;-2.90;56.06
60087;BME280;45960;53.630;55.972;2023-03-16T01:23:19;101664.59;;;-2.83;56.18
60087;BME280;45960;53.630;55.972;2023-03-16T01:24:20;101662.91;;;-2.76;55.98
60087;BME280;45960;53.630;55.972;2023-03-16T01:25:23;101654.22;;;-2.74;55.63
60087;BME280;45960;53.630;55.972;2023-03-16T01:26:25;101659.47;;;-2.72;55.87
60087;BME280;45960;53.630;55.972;2023-03-16T01:27:26;101662.97;;;-2.70;55.70
60087;BME280;45960;53.630;55.972;2023-03-16T01:28:29;101656.94;;;-2.66;55.43
60087;BME280;45960;53.630;55.972;2023-03-16T01:29:31;101654.38;;;-2.60;55.57
60087;BME280;45960;53.630;55.972;2023-03-16T01:30:33;101650.94;;;-2.57;55.61
60087;BME280;45960;53.630;55.972;2023-03-16T01:31:35;101650.94;;;-2.56;55.49
60087;BME280;45960;53.630;55.972;2023-03-16T01:32:37;101650.97;;;-2.53;55.36
60087;BME280;45960;53.630;55.972;2023-03-16T01:33:40;101649.25;;;-2.51;55.36
60087;BME280;45960;53.630;55.972;2023-03-16T01:34:44;101652.78;;;-2.45;55.30
60087;BME280;45960;53.630;55.972;2023-03-16T01:36:00;101654.50;;;-2.48;55.08
60087;BME280;45960;53.630;55.972;2023-03-16T01:37:06;101657.09;;;-2.51;55.25
60087;BME280;45960;53.630;55.972;2023-03-16T01:38:31;101647.50;;;-2.52;55.09
60087;BME280;45960;53.630;55.972;2023-03-16T01:39:33;101646.66;;;-2.49;55.24
60087;BME280;45960;53.630;55.972;2023-03-16T01:40:34;101655.41;;;-2.45;54.99
60087;BME280;45960;53.630;55.972;2023-03-16T01:41:37;101658.06;;;-2.39;55.07
60087;BME280;45960;53.630;55.972;2023-03-16T01:42:47;101652.91;;;-2.33;54.90
60087;BME280;45960;53.630;55.972;2023-03-16T01:43:49;101651.16;;;-2.34;54.86
60087;BME280;45960;53.630;55.972;2023-03-16T01:44:55;101659.00;;;-2.34;54.94
60087;BME280;45960;53.630;55.972;2023-03-16T01:47:07;101659.94;;;-2.29;54.83
60087;BME280;45960;53.630;55.972;2023-03-16T01:48:08;101672.16;;;-2.28;54.82
60087;BME280;45960;53.630;55.972;2023-03-16T01:49:23;101670.41;;;-2.29;54.68
60087;BME280;45960;53.630;55.972;2023-03-16T01:50:26;101665.16;;;-2.32;54.78
60087;BME280;45960;53.630;55.972;2023-03-16T01:52:36;101666.94;;;-2.25;54.80
60087;BME280;45960;53.630;55.972;2023-03-16T01:53:40;101677.41;;;-2.25;54.66
60087;BME280;45960;53.630;55.972;2023-03-16T01:54:51;101677.38;;;-2.28;54.81
60087;BME280;45960;53.630;55.972;2023-03-16T01:55:55;101673.94;;;-2.24;54.83
60087;BME280;45960;53.630;55.972;2023-03-16T01:57:06;101680.94;;;-2.23;54.61
60087;BME280;45960;53.630;55.972;2023-03-16T01:58:09;101686.16;;;-2.21;54.66
60087;BME280;45960;53.630;55.972;2023-03-16T01:59:13;101666.91;;;-2.28;54.64
60087;BME280;45960;53.630;55.972;2023-03-16T02:00:19;101680.06;;;-2.23;54.59
60087;BME280;45960;53.630;55.972;2023-03-16T02:01:36;101681.72;;;-2.32;54.71
60087;BME280;45960;53.630;55.972;2023-03-16T02:02:39;101675.66;;;-2.29;54.95
60087;BME280;45960;53.630;55.972;2023-03-16T02:03:44;101680.97;;;-2.20;54.66
60087;BME280;45960;53.630;55.972;2023-03-16T02:04:58;101676.66;;;-2.13;54.59
60087;BME280;45960;53.630;55.972;2023-03-16T02:06:17;101677.59;;;-2.07;54.52
60087;BME280;45960;53.630;55.972;2023-03-16T02:07:24;101671.50;;;-2.03;54.26
60087;BME280;45960;53.630;55.972;2023-03-16T02:08:27;101674.16;;;-1.96;54.22
60087;BME280;45960;53.630;55.972;2023-03-16T02:09:30;101682.94;;;-1.94;54.00
60087;BME280;45960;53.630;55.972;2023-03-16T02:10:32;101674.19;;;-1.93;54.25
60087;BME280;45960;53.630;55.972;2023-03-16T02:11:35;101685.59;;;-1.88;53.93
60087;BME280;45960;53.630;55.972;2023-03-16T02:12:42;101687.38;;;-1.87;54.13
60087;BME280;45960;53.630;55.972;2023-03-16T02:13:44;101676.03;;;-1.83;53.98
60087;BME280;45960;53.630;55.972;2023-03-16T02:14:47;101684.78;;;-1.81;53.81
60087;BME280;45960;53.630;55.972;2023-03-16T02:15:50;101681.31;;;-1.80;54.00
60087;BME280;45960;53.630;55.972;2023-03-16T02:16:55;101685.69;;;-1.77;53.90
60087;BME280;45960;53.630;55.972;2023-03-16T02:17:57;101683.09;;;-1.76;53.69
60087;BME280;45960;53.630;55.972;2023-03-16T02:19:00;101684.84;;;-1.72;53.93
60087;BME280;45960;53.630;55.972;2023-03-16T02:22:18;101692.72;;;-1.73;53.96
60087;BME280;45960;53.630;55.972;2023-03-16T02:23:23;101696.22;;;-1.73;53.96
60087;BME280;45960;53.630;55.972;2023-03-16T02:24:25;101691.81;;;-1.74;53.95
60087;BME280;45960;53.630;55.972;2023-03-16T02:30:41;101687.53;;;-1.66;54.22
60087;BME280;45960;53.630;55.972;2023-03-16T02:31:42;101691.09;;;-1.59;54.01
60087;BME280;45960;53.630;55.972;2023-03-16T02:32:47;101684.97;;;-1.60;53.89
60087;BME280;45960;53.630;55.972;2023-03-16T02:33:51;101681.50;;;-1.55;53.65
60087;BME280;45960;53.630;55.972;2023-03-16T02:34:55;101688.50;;;-1.51;53.84
60087;BME280;45960;53.630;55.972;2023-03-16T02:35:57;101692.03;;;-1.46;53.99
60087;BME280;45960;53.630;55.972;2023-03-16T02:36:59;101693.84;;;-1.39;53.77
60087;BME280;45960;53.630;55.972;2023-03-16T02:38:01;101689.50;;;-1.37;53.48
60087;BME280;45960;53.630;55.972;2023-03-16T02:39:07;101686.88;;;-1.37;53.57
60087;BME280;45960;53.630;55.972;2023-03-16T02:40:28;101692.13;;;-1.37;53.54
60087;BME280;45960;53.630;55.972;2023-03-16T02:41:31;101686.81;;;-1.40;53.36
60087;BME280;45960;53.630;55.972;2023-03-16T02:42:33;101690.31;;;-1.43;53.66
60087;BME280;45960;53.630;55.972;2023-03-16T02:43:35;101691.19;;;-1.41;53.59
60087;BME280;45960;53.630;55.972;2023-03-16T02:44:57;101695.59;;;-1.40;53.67
60087;BME280;45960;53.630;55.972;2023-03-16T02:46:05;101692.91;;;-1.44;53.66
60087;BME280;45960;53.630;55.972;2023-03-16T02:47:16;101693.81;;;-1.42;53.74
60087;BME280;45960;53.630;55.972;2023-03-16T02:48:22;101690.31;;;-1.41;53.72
60087;BME280;45960;53.630;55.972;2023-03-16T02:49:33;101689.41;;;-1.43;53.69
60087;BME280;45960;53.630;55.972;2023-03-16T02:50:43;101697.28;;;-1.46;53.61
60087;BME280;45960;53.630;55.972;2023-03-16T02:51:46;101692.84;;;-1.55;53.74
60087;BME280;45960;53.630;55.972;2023-03-16T02:52:48;101686.72;;;-1.55;53.89
60087;BME280;45960;53.630;55.972;2023-03-16T02:53:49;101698.97;;;-1.54;53.93
60087;BME280;45960;53.630;55.972;2023-03-16T02:54:51;101695.50;;;-1.50;54.01
60087;BME280;45960;53.630;55.972;2023-03-16T02:55:52;101685.03;;;-1.47;53.69
60087;BME280;45960;53.630;55.972;2023-03-16T02:56:53;101689.41;;;-1.43;53.87
60087;BME280;45960;53.630;55.972;2023-03-16T02:57:55;101692.06;;;-1.40;53.64
60087;BME280;45960;53.630;55.972;2023-03-16T02:58:56;101691.22;;;-1.39;53.47
60087;BME280;45960;53.630;55.972;2023-03-16T02:59:59;101699.94;;;-1.39;53.52
60087;BME280;45960;53.630;55.972;2023-03-16T03:01:01;101697.31;;;-1.40;53.43
60087;BME280;45960;53.630;55.972;2023-03-16T03:02:03;101694.66;;;-1.48;53.61
60087;BME280;45960;53.630;55.972;2023-03-16T03:03:05;101700.75;;;-1.50;53.50
60087;BME280;45960;53.630;55.972;2023-03-16T03:04:08;101695.50;;;-1.53;53.79
60087;BME280;45960;53.630;55.972;2023-03-16T03:05:09;101700.75;;;-1.50;53.89
60087;BME280;45960;53.630;55.972;2023-03-16T03:06:11;101700.75;;;-1.50;53.70
60087;BME280;45960;53.630;55.972;2023-03-16T03:07:13;101704.28;;;-1.48;53.58
60087;BME280;45960;53.630;55.972;2023-03-16T03:08:34;101698.97;;;-1.54;53.47
60087;BME280;45960;53.630;55.972;2023-03-16T03:09:35;101718.22;;;-1.49;53.39
60087;BME280;45960;53.630;55.972;2023-03-16T03:10:37;101717.34;;;-1.50;53.33
60087;BME280;45960;53.630;55.972;2023-03-16T03:11:38;101714.75;;;-1.48;53.26
60087;BME280;45960;53.630;55.972;2023-03-16T03:12:39;101720.84;;;-1.46;53.21
60087;BME280;45960;53.630;55.972;2023-03-16T03:13:42;101720.03;;;-1.45;53.40
60087;BME280;45960;53.630;55.972;2023-03-16T03:14:48;101719.09;;;-1.49;53.23
60087;BME280;45960;53.630;55.972;2023-03-16T03:15:52;101722.56;;;-1.51;53.16
60087;BME280;45960;53.630;55.972;2023-03-16T03:16:56;101720.81;;;-1.54;53.36
60087;BME280;45960;53.630;55.972;2023-03-16T03:17:57;101723.47;;;-1.49;53.19
60087;BME280;45960;53.630;55.972;2023-03-16T03:18:58;101726.97;;;-1.47;53.28
60087;BME280;45960;53.630;55.972;2023-03-16T03:20:02;101732.25;;;-1.44;53.41
60087;BME280;45960;53.630;55.972;2023-03-16T03:21:13;101727.00;;;-1.44;53.20
60087;BME280;45960;53.630;55.972;2023-03-16T03:22:14;101734.00;;;-1.40;53.11
60087;BME280;45960;53.630;55.972;2023-03-16T03:23:18;101724.44;;;-1.40;53.48
60087;BME280;45960;53.630;55.972;2023-03-16T03:24:19;101734.06;;;-1.37;53.18
60087;BME280;45960;53.630;55.972;2023-03-16T03:25:22;101734.06;;;-1.34;53.25
60087;BME280;45960;53.630;55.972;2023-03-16T03:26:25;101734.09;;;-1.31;53.16
60087;BME280;45960;53.630;55.972;2023-03-16T03:27:28;101727.06;;;-1.32;53.42
60087;BME280;45960;53.630;55.972;2023-03-16T03:28:30;101728.88;;;-1.28;53.08
60087;BME280;45960;53.630;55.972;2023-03-16T03:29:31;101734.13;;;-1.28;52.92
60087;BME280;45960;53.630;55.972;2023-03-16T03:30:36;101728.84;;;-1.34;53.06
60087;BME280;45960;53.630;55.972;2023-03-16T03:31:38;101741.97;;;-1.31;53.13
60087;BME280;45960;53.630;55.972;2023-03-16T03:32:39;101740.16;;;-1.35;52.90
60087;BME280;45960;53.630;55.972;2023-03-16T03:33:40;101738.41;;;-1.39;53.04
60087;BME280;45960;53.630;55.972;2023-03-16T03:34:41;101751.50;;;-1.42;53.16
60087;BME280;45960;53.630;55.972;2023-03-16T03:35:43;101743.59;;;-1.44;53.25
60087;BME280;45960;53.630;55.972;2023-03-16T03:36:44;101748.84;;;-1.45;53.28
60087;BME280;45960;53.630;55.972;2023-03-16T03:37:45;101750.56;;;-1.46;53.34
60087;BME280;45960;53.630;55.972;2023-03-16T03:38:48;101740.91;;;-1.51;53.38
60087;BME280;45960;53.630;55.972;2023-03-16T03:39:55;101749.69;;;-1.46;53.13
60087;BME280;45960;53.630;55.972;2023-03-16T03:40:56;101740.06;;;-1.50;53.44
60087;BME280;45960;53.630;55.972;2023-03-16T03:42:01;101744.44;;;-1.49;53.41
60087;BME280;45960;53.630;55.972;2023-03-16T03:43:03;101736.56;;;-1.51;53.47
60087;BME280;45960;53.630;55.972;2023-03-16T03:44:07;101739.19;;;-1.49;53.49
60087;BME280;45960;53.630;55.972;2023-03-16T03:45:11;101741.81;;;-1.49;53.42
60087;BME280;45960;53.630;55.972;2023-03-16T03:46:14;101747.06;;;-1.49;53.38
60087;BME280;45960;53.630;55.972;2023-03-16T03:47:15;101745.31;;;-1.49;53.38
60087;BME280;45960;53.630;55.972;2023-03-16T03:48:17;101746.22;;;-1.48;53.75
60087;BME280;45960;53.630;55.972;2023-03-16T03:49:19;101744.44;;;-1.46;53.39
60087;BME280;45960;53.630;55.972;2023-03-16T03:50:21;101740.09;;;-1.46;53.64
60087;BME280;45960;53.630;55.972;2023-03-16T03:51:33;101739.19;;;-1.49;53.43
60087;BME280;45960;53.630;55.972;2023-03-16T03:52:41;101745.34;;;-1.44;53.43
60087;BME280;45960;53.630;55.972;2023-03-16T03:53:42;101737.47;;;-1.44;53.48
60087;BME280;45960;53.630;55.972;2023-03-16T03:54:52;101734.00;;;-1.43;53.46
60087;BME280;45960;53.630;55.972;2023-03-16T03:55:53;101733.13;;;-1.41;53.27
60087;BME280;45960;53.630;55.972;2023-03-16T03:56:55;101734.00;;;-1.40;53.47
60087;BME280;45960;53.630;55.972;2023-03-16T03:57:56;101742.78;;;-1.38;53.50
60087;BME280;45960;53.630;55.972;2023-03-16T03:58:57;101735.81;;;-1.36;53.47
60087;BME280;45960;53.630;55.972;2023-03-16T04:00:19;101729.69;;;-1.35;53.26
60087;BME280;45960;53.630;55.972;2023-03-16T04:01:21;101734.06;;;-1.34;53.27
60087;BME280;45960;53.630;55.972;2023-03-16T04:02:23;101739.34;;;-1.31;53.18
60087;BME280;45960;53.630;55.972;2023-03-16T04:03:27;101734.13;;;-1.28;53.16
60087;BME280;45960;53.630;55.972;2023-03-16T04:04:30;101738.50;;;-1.25;53.25
60087;BME280;45960;53.630;55.972;2023-03-16T04:05:31;101742.00;;;-1.23;52.98
60087;BME280;45960;53.630;55.972;2023-03-16T04:06:32;101741.13;;;-1.21;53.19
60087;BME280;45960;53.630;55.972;2023-03-16T04:07:33;101747.31;;;-1.17;53.07
60087;BME280;45960;53.630;55.972;2023-03-16T04:08:38;101740.34;;;-1.12;52.74
60087;BME280;45960;53.630;55.972;2023-03-16T04:09:43;101744.75;;;-1.05;52.85
60087;BME280;45960;53.630;55.972;2023-03-16T04:10:53;101741.28;;;-0.99;52.89
60087;BME280;45960;53.630;55.972;2023-03-16T04:11:55;101744.81;;;-0.94;52.75
60087;BME280;45960;53.630;55.972;2023-03-16T04:12:58;101750.09;;;-0.88;52.67
60087;BME280;45960;53.630;55.972;2023-03-16T04:14:03;101752.72;;;-0.82;52.32
60087;BME280;45960;53.630;55.972;2023-03-16T04:15:05;101738.78;;;-0.78;52.43
60087;BME280;45960;53.630;55.972;2023-03-16T04:16:12;101740.53;;;-0.71;52.30
60087;BME280;45960;53.630;55.972;2023-03-16T04:17:17;101743.19;;;-0.64;52.58
60087;BME280;45960;53.630;55.972;2023-03-16T04:18:19;101744.97;;;-0.57;52.22
60087;BME280;45960;53.630;55.972;2023-03-16T04:19:24;101750.25;;;-0.51;51.91
60087;BME280;45960;53.630;55.972;2023-03-16T04:20:27;101745.91;;;-0.46;52.10
60087;BME280;45960;53.630;55.972;2023-03-16T04:21:30;101745.06;;;-0.42;51.94
60087;BME280;45960;53.630;55.972;2023-03-16T04:22:31;101740.66;;;-0.34;51.93
60087;BME280;45960;53.630;55.972;2023-03-16T04:23:33;101745.97;;;-0.25;51.68
60087;BME280;45960;53.630;55.972;2023-03-16T04:24:34;101745.09;;;-0.20;51.59
60087;BME280;45960;53.630;55.972;2023-03-16T04:25:36;101739.84;;;-0.27;51.53
60087;BME280;45960;53.630;55.972;2023-03-16T04:26:43;101741.56;;;-0.23;51.71
60087;BME280;45960;53.630;55.972;2023-03-16T04:27:45;101743.34;;;-0.15;51.79
60087;BME280;45960;53.630;55.972;2023-03-16T04:28:47;101740.75;;;-0.08;51.67
60087;BME280;45960;53.630;55.972;2023-03-16T04:29:51;101732.88;;;-0.03;51.39
60087;BME280;45960;53.630;55.972;2023-03-16T04:31:00;101739.91;;;0.10;51.33
60087;BME280;45960;53.630;55.972;2023-03-16T04:32:07;101739.03;;;0.19;51.09
60087;BME280;45960;53.630;55.972;2023-03-16T04:33:09;101737.28;;;0.21;51.25
60087;BME280;45960;53.630;55.972;2023-03-16T04:34:11;101738.16;;;0.25;50.99
60087;BME280;45960;53.630;55.972;2023-03-16T04:35:12;101734.66;;;0.32;50.93
60087;BME280;45960;53.630;55.972;2023-03-16T04:36:24;101734.69;;;0.39;50.75
60087;BME280;45960;53.630;55.972;2023-03-16T04:37:25;101726.78;;;0.41;50.64
60087;BME280;45960;53.630;55.972;2023-03-16T04:38:31;101732.91;;;0.49;50.55
60087;BME280;45960;53.630;55.972;2023-03-16T04:39:36;101728.53;;;0.48;50.65
60087;BME280;45960;53.630;55.972;2023-03-16T04:40:38;101727.63;;;0.52;50.52
60087;BME280;45960;53.630;55.972;2023-03-16T04:41:50;101738.16;;;0.61;50.41
60087;BME280;45960;53.630;55.972;2023-03-16T04:42:55;101731.13;;;0.73;50.33
60087;BME280;45960;53.630;55.972;2023-03-16T04:43:57;101732.88;;;0.80;49.88
60087;BME280;45960;53.630;55.972;2023-03-16T04:44:59;101735.50;;;0.87;49.92
60087;BME280;45960;53.630;55.972;2023-03-16T04:46:02;101730.22;;;0.98;49.36
60087;BME280;45960;53.630;55.972;2023-03-16T04:47:04;101739.81;;;1.08;49.63
60087;BME280;45960;53.630;55.972;2023-03-16T04:48:11;101727.53;;;1.10;49.49
60087;BME280;45960;53.630;55.972;2023-03-16T04:49:12;101737.19;;;1.18;49.39
60087;BME280;45960;53.630;55.972;2023-03-16T04:50:16;101738.00;;;1.26;49.39
60087;BME280;45960;53.630;55.972;2023-03-16T04:51:24;101734.47;;;1.36;49.16
60087;BME280;45960;53.630;55.972;2023-03-16T04:52:37;101736.16;;;1.49;48.88
60087;BME280;45960;53.630;55.972;2023-03-16T04:53:38;101730.81;;;1.65;48.70
60087;BME280;45960;53.630;55.972;2023-03-16T04:54:49;101736.03;;;1.80;48.40
60087;BME280;45960;53.630;55.972;2023-03-16T04:55:51;101721.88;;;1.90;48.07
60087;BME280;45960;53.630;55.972;2023-03-16T04:56:53;101728.81;;;2.04;47.60
60087;BME280;45960;53.630;55.972;2023-03-16T04:58:04;101731.38;;;2.13;47.95
60087;BME280;45960;53.630;55.972;2023-03-16T04:59:08;101730.47;;;2.20;47.31
60087;BME280;45960;53.630;55.972;2023-03-16T05:00:19;101728.72;;;2.22;47.59
60087;BME280;45960;53.630;55.972;2023-03-16T05:01:36;101733.13;;;2.21;47.63
60087;BME280;45960;53.630;55.972;2023-03-16T05:02:38;101727.81;;;2.24;47.76
60087;BME280;45960;53.630;55.972;2023-03-16T05:03:39;101732.13;;;2.36;47.61
60087;BME280;45960;53.630;55.972;2023-03-16T05:04:40;101723.22;;;2.50;47.24
60087;BME280;45960;53.630;55.972;2023-03-16T05:05:45;101726.63;;;2.61;47.03
60087;BME280;45960;53.630;55.972;2023-03-16T05:06:46;101721.28;;;2.67;46.73
60087;BME280;45960;53.630;55.972;2023-03-16T05:07:48;101722.06;;;2.78;46.85
60087;BME280;45960;53.630;55.972;2023-03-16T05:08:50;101721.06;;;2.88;46.42
60087;BME280;45960;53.630;55.972;2023-03-16T05:09:51;101718.34;;;2.96;46.34
60087;BME280;45960;53.630;55.972;2023-03-16T05:10:58;101720.00;;;3.05;46.01
60087;BME280;45960;53.630;55.972;2023-03-16T05:12:03;101714.72;;;3.05;46.02
60087;BME280;45960;53.630;55.972;2023-03-16T05:13:05;101719.97;;;3.11;45.92
60087;BME280;45960;53.630;55.972;2023-03-16T05:14:07;101715.47;;;3.16;45.77
60087;BME280;45960;53.630;55.972;2023-03-16T05:15:19;101717.19;;;3.20;45.67
60087;BME280;45960;53.630;55.972;2023-03-16T05:16:29;101717.28;;;3.14;45.92
60087;BME280;45960;53.630;55.972;2023-03-16T05:17:30;101715.47;;;3.16;46.01
60087;BME280;45960;53.630;55.972;2023-03-16T05:18:31;101714.56;;;3.20;45.98
60087;BME280;45960;53.630;55.972;2023-03-16T05:19:33;101713.69;;;3.18;45.84
60087;BME280;45960;53.630;55.972;2023-03-16T05:20:34;101721.50;;;3.29;45.82
60087;BME280;45960;53.630;55.972;2023-03-16T05:21:36;101727.53;;;3.39;45.40
60087;BME280;45960;53.630;55.972;2023-03-16T05:22:44;101728.31;;;3.47;45.44
60087;BME280;45960;53.630;55.972;2023-03-16T05:23:50;101722.06;;;3.52;45.43
60087;BME280;45960;53.630;55.972;2023-03-16T05:24:52;101730.72;;;3.65;45.00
60087;BME280;45960;53.630;55.972;2023-03-16T05:25:53;101722.69;;;3.73;44.98
60087;BME280;45960;53.630;55.972;2023-03-16T05:26:57;101723.44;;;3.83;44.88
60087;BME280;45960;53.630;55.972;2023-03-16T05:27:59;101723.25;;;3.95;44.65
60087;BME280;45960;53.630;55.972;2023-03-16T05:29:18;101723.13;;;4.04;44.27
60087;BME280;45960;53.630;55.972;2023-03-16T05:30:20;101732.63;;;4.17;44.10
60087;BME280;45960;53.630;55.972;2023-03-16T05:31:21;101741.34;;;4.24;44.16
60087;BME280;45960;53.630;55.972;2023-03-16T05:32:26;101738.53;;;4.35;44.15
60087;BME280;45960;53.630;55.972;2023-03-16T05:33:27;101740.16;;;4.42;43.85
60087;BME280;45960;53.630;55.972;2023-03-16T05:34:35;101732.16;;;4.46;43.69
60087;BME280;45960;53.630;55.972;2023-03-16T05:35:36;101739.22;;;4.44;43.60
60087;BME280;45960;53.630;55.972;2023-03-16T05:36:42;101727.56;;;4.56;43.56
60087;BME280;45960;53.630;55.972;2023-03-16T05:37:47;101731.81;;;4.65;43.58
60087;BME280;45960;53.630;55.972;2023-03-16T05:38:52;101727.19;;;4.78;43.08
60087;BME280;45960;53.630;55.972;2023-03-16T05:40:05;101723.41;;;4.91;42.80
60087;BME280;45960;53.630;55.972;2023-03-16T05:41:16;101721.56;;;4.96;42.46